Argentia, Canada
Current Conditions -  °F | °C
As of 2:00 AM on Saturday 01 Nov 2014 (Local Time) from CYYT Reporting Station
Broken Clouds Broken Clouds  
Wind Chill: 40°   Ceiling: 3200
Heat Index: 43°   Visibility: 15mi
Dew Point: 36°   Wind: 5mph
Humidity: 76%   Direction: 220°SW
Pressure: 30.15"   Gusts: NA
Location:  47.32°N, 53.95°W
Report Text: CYYT 010400Z 22004KT 15SM BKN032 06/02 A3015 RMK SC7 SLP215
Loading
Personal Weather Stations






























Interactive Weather Map
Tropical Storm Tracking
New forecast layout! Learn more

10-Day Weather Forecast

Advertisements
Track Severe Weather on mobile